createdAt,value
2022-12-04T18:46:46.025Z,33.00
2022-12-04T18:49:13.855Z,27.48
2022-12-04T18:51:49.637Z,28.15
2022-12-04T18:54:22.646Z,26.17
2022-12-04T18:56:50.423Z,25.42
2022-12-04T18:59:20.614Z,24.17
2022-12-04T19:01:51.062Z,25.00
2022-12-04T19:04:20.741Z,22.73
2022-12-04T19:06:55.370Z,23.95
2022-12-04T19:09:47.179Z,24.40
2022-12-04T19:12:15.150Z,23.40
2022-12-04T19:14:43.069Z,24.98
2022-12-04T19:17:11.605Z,23.88
2022-12-04T19:19:42.788Z,24.65
2022-12-04T19:22:11.048Z,24.52
2022-12-04T19:24:39.567Z,25.08
2022-12-04T19:27:13.061Z,24.55
2022-12-04T19:29:43.864Z,23.13
2022-12-04T19:32:12.920Z,27.92
2022-12-04T19:34:45.036Z,23.73
2022-12-04T19:37:15.549Z,23.38
2022-12-04T19:39:42.730Z,22.75
2022-12-04T19:42:13.446Z,23.48
2022-12-04T19:44:48.434Z,24.35
2022-12-04T19:47:16.118Z,22.15
2022-12-04T19:50:17.351Z,23.23
2022-12-04T19:52:44.722Z,24.40
2022-12-04T20:02:39.078Z,23.83
2022-12-04T20:05:15.675Z,23.98
2022-12-04T20:07:42.989Z,24.63
2022-12-04T20:12:39.859Z,24.13
2022-12-04T20:15:10.113Z,24.75
2022-12-04T20:17:40.291Z,27.27
2022-12-04T20:20:08.764Z,25.88
2022-12-04T20:22:37.129Z,22.65
2022-12-04T20:25:04.733Z,22.52
2022-12-04T20:27:32.358Z,24.67
2022-12-04T20:30:00.786Z,24.05
2022-12-04T20:32:38.228Z,25.20
2022-12-04T20:35:11.163Z,24.45
2022-12-04T20:37:43.155Z,24.13
2022-12-04T20:40:10.956Z,25.35
2022-12-04T20:42:40.409Z,24.25
2022-12-04T20:45:08.368Z,24.35
2022-12-04T20:47:36.576Z,24.73
2022-12-04T20:50:10.631Z,23.38
2022-12-04T20:52:38.151Z,25.27
2022-12-04T20:55:06.974Z,24.63
2022-12-04T20:57:36.401Z,24.60
2022-12-04T21:00:06.253Z,23.50
2022-12-04T21:02:33.588Z,23.60
2022-12-04T21:05:02.979Z,24.13
2022-12-04T21:07:32.799Z,23.63
2022-12-04T21:10:22.294Z,24.73
2022-12-04T21:13:10.102Z,23.15
2022-12-04T21:15:58.449Z,18.38
2022-12-04T21:18:25.923Z,19.35
2022-12-04T21:23:23.198Z,21.20
2022-12-04T21:25:50.602Z,20.55
2022-12-04T21:48:17.206Z,18.27
2022-12-04T21:50:47.006Z,16.50
2022-12-04T21:53:14.725Z,15.30
2022-12-04T21:55:51.944Z,15.50
2022-12-04T21:58:21.762Z,14.57
2022-12-04T22:00:49.595Z,13.55
2022-12-04T22:03:17.146Z,15.52
2022-12-04T22:05:44.852Z,14.35
2022-12-04T22:08:13.970Z,13.40
2022-12-04T22:10:43.124Z,14.32
2022-12-04T22:13:10.646Z,13.30
2022-12-04T22:15:42.697Z,12.60
2022-12-04T22:18:11.353Z,14.05
2022-12-04T22:20:41.909Z,13.43
2022-12-04T22:23:10.106Z,14.32
2022-12-04T22:25:38.322Z,14.23
2022-12-04T22:28:05.472Z,14.18
2022-12-04T22:30:34.012Z,14.10
2022-12-04T22:33:01.190Z,14.35
2022-12-04T22:35:28.191Z,14.43
2022-12-04T22:37:55.165Z,14.63
2022-12-04T22:40:22.068Z,13.88
2022-12-04T22:42:49.169Z,14.90
2022-12-04T22:45:23.398Z,14.45
2022-12-04T22:47:50.659Z,13.60
2022-12-04T22:50:20.266Z,13.90
2022-12-04T22:52:47.414Z,12.63
2022-12-04T22:55:14.573Z,12.88
2022-12-04T22:57:41.664Z,12.68
2022-12-04T23:00:12.518Z,12.88
2022-12-04T23:02:41.988Z,13.52
2022-12-04T23:05:11.541Z,12.52
2022-12-04T23:07:39.409Z,12.50
2022-12-04T23:10:07.231Z,13.35
2022-12-04T23:12:36.451Z,12.88
2022-12-04T23:15:03.647Z,12.88
2022-12-04T23:17:32.799Z,13.32
2022-12-04T23:19:59.900Z,13.32
2022-12-04T23:22:27.710Z,12.57
2022-12-04T23:24:54.680Z,13.15
2022-12-04T23:27:23.915Z,12.75
2022-12-04T23:29:54.101Z,13.60
2022-12-04T23:32:23.881Z,14.00
2022-12-04T23:34:53.201Z,13.25
2022-12-04T23:37:20.273Z,11.73
2022-12-04T23:39:47.329Z,13.32
2022-12-04T23:42:16.440Z,12.52
2022-12-04T23:44:46.177Z,12.43
2022-12-04T23:47:15.795Z,13.50
2022-12-04T23:49:42.866Z,13.02
2022-12-04T23:52:09.883Z,13.60
2022-12-04T23:54:37.647Z,13.85
2022-12-04T23:57:10.293Z,12.77
2022-12-04T23:59:37.355Z,13.35
